STN weather

London Stansted Airport
London, England, United Kingdom

Public forecast

Using degrees Celsius for public forecast. Weather courtesy of forecast.io.

METAR (pilot weather report)

Retrieved 2018/06/22 22:20 UTC (0 seconds ago):

EGSS 222220Z AUTO 16005KT 9999 NCD 11/09 Q1030

TAF (pilot weather forecast)

Retrieved 2018/06/22 18:15 UTC (4 hours ago):

TAF EGSS 221703Z 2218/2324 01010KT CAVOK BECMG 2218/2221 13008KT BECMG 2304/2307 33010KT